sensor_id;sensor_type;location;lat;lon;timestamp;temperature;humidity
23669;DHT22;12011;47.422;15.018;2022-09-17T00:00:27;10.20;99.90
23669;DHT22;12011;47.422;15.018;2022-09-17T00:03:00;10.20;99.90
23669;DHT22;12011;47.422;15.018;2022-09-17T00:05:29;10.20;99.90
23669;DHT22;12011;47.422;15.018;2022-09-17T00:07:59;10.20;99.90
23669;DHT22;12011;47.422;15.018;2022-09-17T00:10:29;10.20;99.90
23669;DHT22;12011;47.422;15.018;2022-09-17T00:12:59;10.10;99.90
23669;DHT22;12011;47.422;15.018;2022-09-17T00:15:28;10.10;99.90
23669;DHT22;12011;47.422;15.018;2022-09-17T00:18:01;10.10;99.90
23669;DHT22;12011;47.422;15.018;2022-09-17T00:20:30;10.10;99.90
23669;DHT22;12011;47.422;15.018;2022-09-17T00:23:00;10.00;99.90
23669;DHT22;12011;47.422;15.018;2022-09-17T00:25:29;10.00;99.90
23669;DHT22;12011;47.422;15.018;2022-09-17T00:27:59;10.00;99.90
23669;DHT22;12011;47.422;15.018;2022-09-17T00:30:29;10.00;99.90
23669;DHT22;12011;47.422;15.018;2022-09-17T00:33:01;10.00;99.90
23669;DHT22;12011;47.422;15.018;2022-09-17T00:35:31;10.00;99.90
23669;DHT22;12011;47.422;15.018;2022-09-17T00:38:00;9.90;99.90
23669;DHT22;12011;47.422;15.018;2022-09-17T00:40:30;9.90;99.90
23669;DHT22;12011;47.422;15.018;2022-09-17T00:43:00;9.90;99.90
23669;DHT22;12011;47.422;15.018;2022-09-17T00:45:30;9.90;99.90
23669;DHT22;12011;47.422;15.018;2022-09-17T00:48:05;9.90;99.90
23669;DHT22;12011;47.422;15.018;2022-09-17T00:50:38;9.80;99.90
23669;DHT22;12011;47.422;15.018;2022-09-17T00:53:13;9.80;99.90
23669;DHT22;12011;47.422;15.018;2022-09-17T00:55:48;9.70;99.90
23669;DHT22;12011;47.422;15.018;2022-09-17T00:58:22;9.80;99.90
23669;DHT22;12011;47.422;15.018;2022-09-17T01:00:54;9.80;99.90
23669;DHT22;12011;47.422;15.018;2022-09-17T01:03:26;9.80;99.90
23669;DHT22;12011;47.422;15.018;2022-09-17T01:06:07;9.80;99.90
23669;DHT22;12011;47.422;15.018;2022-09-17T01:08:54;9.80;99.90
23669;DHT22;12011;47.422;15.018;2022-09-17T01:12:01;9.70;99.90
23669;DHT22;12011;47.422;15.018;2022-09-17T01:14:54;9.70;99.90
23669;DHT22;12011;47.422;15.018;2022-09-17T01:17:38;9.70;99.90
23669;DHT22;12011;47.422;15.018;2022-09-17T01:24:07;9.70;99.90
23669;DHT22;12011;47.422;15.018;2022-09-17T01:27:27;9.80;99.90
23669;DHT22;12011;47.422;15.018;2022-09-17T01:33:12;9.70;99.90
23669;DHT22;12011;47.422;15.018;2022-09-17T01:35:51;9.70;99.90
23669;DHT22;12011;47.422;15.018;2022-09-17T01:38:28;9.60;99.90
23669;DHT22;12011;47.422;15.018;2022-09-17T01:41:05;9.60;99.90
23669;DHT22;12011;47.422;15.018;2022-09-17T01:43:45;9.60;99.90
23669;DHT22;12011;47.422;15.018;2022-09-17T01:46:28;9.60;99.90
23669;DHT22;12011;47.422;15.018;2022-09-17T01:49:03;9.60;99.90
23669;DHT22;12011;47.422;15.018;2022-09-17T01:51:38;9.70;99.90
23669;DHT22;12011;47.422;15.018;2022-09-17T01:54:16;9.70;99.90
23669;DHT22;12011;47.422;15.018;2022-09-17T01:56:53;9.70;99.90
23669;DHT22;12011;47.422;15.018;2022-09-17T01:59:32;9.60;99.90
23669;DHT22;12011;47.422;15.018;2022-09-17T02:02:12;9.60;99.90
23669;DHT22;12011;47.422;15.018;2022-09-17T02:04:51;9.60;99.90
23669;DHT22;12011;47.422;15.018;2022-09-17T02:07:27;9.60;99.90
23669;DHT22;12011;47.422;15.018;2022-09-17T02:10:03;9.60;99.90
23669;DHT22;12011;47.422;15.018;2022-09-17T02:12:41;9.60;99.90
23669;DHT22;12011;47.422;15.018;2022-09-17T02:15:21;9.60;99.90
23669;DHT22;12011;47.422;15.018;2022-09-17T02:18:12;9.60;99.90
23669;DHT22;12011;47.422;15.018;2022-09-17T02:20:51;9.70;99.90
23669;DHT22;12011;47.422;15.018;2022-09-17T02:23:30;9.60;99.90
23669;DHT22;12011;47.422;15.018;2022-09-17T02:26:07;9.60;99.90
23669;DHT22;12011;47.422;15.018;2022-09-17T02:28:44;9.50;99.90
23669;DHT22;12011;47.422;15.018;2022-09-17T02:31:17;9.50;99.90
23669;DHT22;12011;47.422;15.018;2022-09-17T02:33:52;9.60;99.90
23669;DHT22;12011;47.422;15.018;2022-09-17T02:36:26;9.60;99.90
23669;DHT22;12011;47.422;15.018;2022-09-17T02:38:59;9.60;99.90
23669;DHT22;12011;47.422;15.018;2022-09-17T02:41:39;9.60;99.90
23669;DHT22;12011;47.422;15.018;2022-09-17T02:44:23;9.60;99.90
23669;DHT22;12011;47.422;15.018;2022-09-17T02:47:28;9.60;99.90
23669;DHT22;12011;47.422;15.018;2022-09-17T02:50:29;9.60;99.90
23669;DHT22;12011;47.422;15.018;2022-09-17T02:53:22;9.60;99.90
23669;DHT22;12011;47.422;15.018;2022-09-17T02:56:10;9.60;99.90
23669;DHT22;12011;47.422;15.018;2022-09-17T02:58:49;9.60;99.90
23669;DHT22;12011;47.422;15.018;2022-09-17T03:01:27;9.60;99.90
23669;DHT22;12011;47.422;15.018;2022-09-17T03:04:03;9.60;99.90
23669;DHT22;12011;47.422;15.018;2022-09-17T03:06:39;9.70;99.90
23669;DHT22;12011;47.422;15.018;2022-09-17T03:09:10;9.70;99.90
23669;DHT22;12011;47.422;15.018;2022-09-17T03:11:40;9.60;99.90
23669;DHT22;12011;47.422;15.018;2022-09-17T03:14:09;9.60;99.90
23669;DHT22;12011;47.422;15.018;2022-09-17T03:16:39;9.50;99.90
23669;DHT22;12011;47.422;15.018;2022-09-17T03:19:09;9.50;99.90
23669;DHT22;12011;47.422;15.018;2022-09-17T03:21:41;9.50;99.90
23669;DHT22;12011;47.422;15.018;2022-09-17T03:24:10;9.60;99.90
23669;DHT22;12011;47.422;15.018;2022-09-17T03:26:40;9.70;99.90
23669;DHT22;12011;47.422;15.018;2022-09-17T03:29:09;9.70;99.90
23669;DHT22;12011;47.422;15.018;2022-09-17T03:31:39;9.60;99.90
23669;DHT22;12011;47.422;15.018;2022-09-17T03:34:09;9.50;99.90
23669;DHT22;12011;47.422;15.018;2022-09-17T03:36:41;9.50;99.90
23669;DHT22;12011;47.422;15.018;2022-09-17T03:39:11;9.60;99.90
23669;DHT22;12011;47.422;15.018;2022-09-17T03:41:41;9.60;99.90
23669;DHT22;12011;47.422;15.018;2022-09-17T03:44:10;9.60;99.90
23669;DHT22;12011;47.422;15.018;2022-09-17T03:46:40;9.60;99.90
23669;DHT22;12011;47.422;15.018;2022-09-17T03:49:10;9.70;99.90
23669;DHT22;12011;47.422;15.018;2022-09-17T03:51:42;9.70;99.90
23669;DHT22;12011;47.422;15.018;2022-09-17T03:54:11;9.70;99.90
23669;DHT22;12011;47.422;15.018;2022-09-17T03:56:41;9.70;99.90
23669;DHT22;12011;47.422;15.018;2022-09-17T03:59:10;9.90;99.90
23669;DHT22;12011;47.422;15.018;2022-09-17T04:01:40;9.80;99.90
23669;DHT22;12011;47.422;15.018;2022-09-17T04:04:09;9.80;99.90
23669;DHT22;12011;47.422;15.018;2022-09-17T04:06:41;9.80;99.90
23669;DHT22;12011;47.422;15.018;2022-09-17T04:09:11;9.80;99.90
23669;DHT22;12011;47.422;15.018;2022-09-17T04:11:40;9.80;99.90
23669;DHT22;12011;47.422;15.018;2022-09-17T04:14:10;9.80;99.90
23669;DHT22;12011;47.422;15.018;2022-09-17T04:16:40;9.80;99.90
23669;DHT22;12011;47.422;15.018;2022-09-17T04:19:09;9.70;99.90
23669;DHT22;12011;47.422;15.018;2022-09-17T04:21:41;9.70;99.90
23669;DHT22;12011;47.422;15.018;2022-09-17T04:24:11;9.70;99.90
23669;DHT22;12011;47.422;15.018;2022-09-17T04:26:40;9.60;99.90
23669;DHT22;12011;47.422;15.018;2022-09-17T04:29:10;9.60;99.90
23669;DHT22;12011;47.422;15.018;2022-09-17T04:31:39;9.50;99.90
23669;DHT22;12011;47.422;15.018;2022-09-17T04:34:09;9.50;99.90
23669;DHT22;12011;47.422;15.018;2022-09-17T04:36:41;9.50;99.90
23669;DHT22;12011;47.422;15.018;2022-09-17T04:39:11;9.50;99.90
23669;DHT22;12011;47.422;15.018;2022-09-17T04:41:40;9.50;99.90
23669;DHT22;12011;47.422;15.018;2022-09-17T04:44:10;9.50;99.90
23669;DHT22;12011;47.422;15.018;2022-09-17T04:46:40;9.50;99.90
23669;DHT22;12011;47.422;15.018;2022-09-17T04:49:09;9.50;99.90
23669;DHT22;12011;47.422;15.018;2022-09-17T04:51:41;9.50;99.90
23669;DHT22;12011;47.422;15.018;2022-09-17T04:54:11;9.50;99.90
23669;DHT22;12011;47.422;15.018;2022-09-17T04:56:40;9.50;99.90
23669;DHT22;12011;47.422;15.018;2022-09-17T04:59:10;9.50;99.90
23669;DHT22;12011;47.422;15.018;2022-09-17T05:01:39;9.50;99.90
23669;DHT22;12011;47.422;15.018;2022-09-17T05:04:10;9.50;99.90
23669;DHT22;12011;47.422;15.018;2022-09-17T05:06:42;9.50;99.90
23669;DHT22;12011;47.422;15.018;2022-09-17T05:09:12;9.50;99.90
23669;DHT22;12011;47.422;15.018;2022-09-17T05:11:42;9.50;99.90
23669;DHT22;12011;47.422;15.018;2022-09-17T05:14:11;9.50;99.90
23669;DHT22;12011;47.422;15.018;2022-09-17T05:16:41;9.50;99.90
23669;DHT22;12011;47.422;15.018;2022-09-17T05:19:10;9.60;99.90
23669;DHT22;12011;47.422;15.018;2022-09-17T05:21:43;9.60;99.90
23669;DHT22;12011;47.422;15.018;2022-09-17T05:24:12;9.60;99.90
23669;DHT22;12011;47.422;15.018;2022-09-17T05:26:42;9.70;99.90
23669;DHT22;12011;47.422;15.018;2022-09-17T05:29:12;9.80;99.90
23669;DHT22;12011;47.422;15.018;2022-09-17T05:31:42;9.80;99.90
23669;DHT22;12011;47.422;15.018;2022-09-17T05:34:12;9.80;99.20
23669;DHT22;12011;47.422;15.018;2022-09-17T05:36:44;9.90;98.00
23669;DHT22;12011;47.422;15.018;2022-09-17T05:39:14;9.90;97.80
23669;DHT22;12011;47.422;15.018;2022-09-17T05:41:45;9.90;98.40
23669;DHT22;12011;47.422;15.018;2022-09-17T05:44:15;9.90;93.50
23669;DHT22;12011;47.422;15.018;2022-09-17T05:46:45;9.90;98.20
23669;DHT22;12011;47.422;15.018;2022-09-17T05:49:15;10.00;96.40
23669;DHT22;12011;47.422;15.018;2022-09-17T05:51:49;10.10;97.60
23669;DHT22;12011;47.422;15.018;2022-09-17T05:54:18;10.00;98.20
23669;DHT22;12011;47.422;15.018;2022-09-17T05:56:52;10.10;96.40
23669;DHT22;12011;47.422;15.018;2022-09-17T05:59:21;10.10;93.90
23669;DHT22;12011;47.422;15.018;2022-09-17T06:01:51;10.10;99.90
23669;DHT22;12011;47.422;15.018;2022-09-17T06:04:23;10.20;92.60
23669;DHT22;12011;47.422;15.018;2022-09-17T06:06:55;10.20;97.40
23669;DHT22;12011;47.422;15.018;2022-09-17T06:09:24;10.20;90.70
23669;DHT22;12011;47.422;15.018;2022-09-17T06:11:54;10.30;91.10
23669;DHT22;12011;47.422;15.018;2022-09-17T06:14:23;10.20;90.10
23669;DHT22;12011;47.422;15.018;2022-09-17T06:16:53;10.20;90.30
23669;DHT22;12011;47.422;15.018;2022-09-17T06:19:24;10.30;85.80
23669;DHT22;12011;47.422;15.018;2022-09-17T06:21:56;10.40;83.30
23669;DHT22;12011;47.422;15.018;2022-09-17T06:24:25;10.40;89.30
23669;DHT22;12011;47.422;15.018;2022-09-17T06:26:55;10.40;90.60
23669;DHT22;12011;47.422;15.018;2022-09-17T06:29:24;10.50;81.70
23669;DHT22;12011;47.422;15.018;2022-09-17T06:31:54;10.60;88.20
23669;DHT22;12011;47.422;15.018;2022-09-17T06:34:23;10.60;84.80
23669;DHT22;12011;47.422;15.018;2022-09-17T06:36:55;10.70;83.30
23669;DHT22;12011;47.422;15.018;2022-09-17T06:39:25;10.80;80.40
23669;DHT22;12011;47.422;15.018;2022-09-17T06:41:54;10.90;79.60
23669;DHT22;12011;47.422;15.018;2022-09-17T06:44:27;10.90;93.40
23669;DHT22;12011;47.422;15.018;2022-09-17T06:46:57;10.90;78.80
23669;DHT22;12011;47.422;15.018;2022-09-17T06:49:26;10.80;79.70
23669;DHT22;12011;47.422;15.018;2022-09-17T06:52:00;10.80;81.50
23669;DHT22;12011;47.422;15.018;2022-09-17T06:54:30;10.70;76.20
23669;DHT22;12011;47.422;15.018;2022-09-17T06:57:00;10.70;79.50
23669;DHT22;12011;47.422;15.018;2022-09-17T06:59:29;10.70;77.80
23669;DHT22;12011;47.422;15.018;2022-09-17T07:01:59;10.70;79.20
23669;DHT22;12011;47.422;15.018;2022-09-17T07:04:28;10.70;91.10
23669;DHT22;12011;47.422;15.018;2022-09-17T07:07:01;10.60;92.70
23669;DHT22;12011;47.422;15.018;2022-09-17T07:09:30;10.60;95.80
23669;DHT22;12011;47.422;15.018;2022-09-17T07:12:00;10.60;95.50
23669;DHT22;12011;47.422;15.018;2022-09-17T07:14:30;10.60;92.70
23669;DHT22;12011;47.422;15.018;2022-09-17T07:17:00;10.70;93.90
23669;DHT22;12011;47.422;15.018;2022-09-17T07:19:29;10.60;91.50
23669;DHT22;12011;47.422;15.018;2022-09-17T07:22:02;10.70;91.20
23669;DHT22;12011;47.422;15.018;2022-09-17T07:24:32;10.60;83.70
23669;DHT22;12011;47.422;15.018;2022-09-17T07:27:01;10.70;81.50
23669;DHT22;12011;47.422;15.018;2022-09-17T07:29:31;10.70;82.80
23669;DHT22;12011;47.422;15.018;2022-09-17T07:32:00;10.60;84.20
23669;DHT22;12011;47.422;15.018;2022-09-17T07:34:30;10.60;79.00
23669;DHT22;12011;47.422;15.018;2022-09-17T07:37:02;10.50;86.60
23669;DHT22;12011;47.422;15.018;2022-09-17T07:39:33;10.50;81.10
23669;DHT22;12011;47.422;15.018;2022-09-17T07:42:04;10.60;78.40
23669;DHT22;12011;47.422;15.018;2022-09-17T07:44:34;10.60;82.30
23669;DHT22;12011;47.422;15.018;2022-09-17T07:47:03;10.60;80.70
23669;DHT22;12011;47.422;15.018;2022-09-17T07:49:35;10.60;80.00
23669;DHT22;12011;47.422;15.018;2022-09-17T07:52:07;10.60;76.80
23669;DHT22;12011;47.422;15.018;2022-09-17T07:54:36;10.50;77.20
23669;DHT22;12011;47.422;15.018;2022-09-17T07:57:06;10.60;78.10
23669;DHT22;12011;47.422;15.018;2022-09-17T07:59:36;10.60;77.10
23669;DHT22;12011;47.422;15.018;2022-09-17T08:02:11;10.60;81.70
23669;DHT22;12011;47.422;15.018;2022-09-17T08:04:44;10.60;77.70
23669;DHT22;12011;47.422;15.018;2022-09-17T08:07:16;10.60;80.20
23669;DHT22;12011;47.422;15.018;2022-09-17T08:09:46;10.60;77.60
23669;DHT22;12011;47.422;15.018;2022-09-17T08:12:16;10.60;77.60
23669;DHT22;12011;47.422;15.018;2022-09-17T08:14:45;10.50;73.20
23669;DHT22;12011;47.422;15.018;2022-09-17T08:17:15;10.40;83.10
23669;DHT22;12011;47.422;15.018;2022-09-17T08:19:44;10.40;76.40
23669;DHT22;12011;47.422;15.018;2022-09-17T08:22:16;10.40;74.20
23669;DHT22;12011;47.422;15.018;2022-09-17T08:24:46;10.40;72.60
23669;DHT22;12011;47.422;15.018;2022-09-17T08:27:15;10.50;76.40
23669;DHT22;12011;47.422;15.018;2022-09-17T08:29:45;10.60;74.50
23669;DHT22;12011;47.422;15.018;2022-09-17T08:32:15;10.70;75.60
23669;DHT22;12011;47.422;15.018;2022-09-17T08:34:44;10.70;75.10
23669;DHT22;12011;47.422;15.018;2022-09-17T08:37:16;10.80;74.40
23669;DHT22;12011;47.422;15.018;2022-09-17T08:39:46;10.90;77.10
23669;DHT22;12011;47.422;15.018;2022-09-17T08:42:23;10.80;72.60
23669;DHT22;12011;47.422;15.018;2022-09-17T08:45:02;10.80;76.00
23669;DHT22;12011;47.422;15.018;2022-09-17T08:47:37;10.80;74.70
23669;DHT22;12011;47.422;15.018;2022-09-17T08:50:14;10.80;73.00
23669;DHT22;12011;47.422;15.018;2022-09-17T08:53:11;10.70;74.10
23669;DHT22;12011;47.422;15.018;2022-09-17T08:55:53;10.80;78.70
23669;DHT22;12011;47.422;15.018;2022-09-17T08:58:43;10.80;77.60
23669;DHT22;12011;47.422;15.018;2022-09-17T09:01:31;10.90;84.90
23669;DHT22;12011;47.422;15.018;2022-09-17T09:07:29;10.80;78.40
23669;DHT22;12011;47.422;15.018;2022-09-17T09:10:18;10.80;78.60
23669;DHT22;12011;47.422;15.018;2022-09-17T09:12:50;10.70;78.20
23669;DHT22;12011;47.422;15.018;2022-09-17T09:15:31;10.70;80.40
23669;DHT22;12011;47.422;15.018;2022-09-17T09:18:17;10.70;89.50
23669;DHT22;12011;47.422;15.018;2022-09-17T09:20:49;10.70;86.10
23669;DHT22;12011;47.422;15.018;2022-09-17T09:23:30;10.70;88.50
23669;DHT22;12011;47.422;15.018;2022-09-17T09:26:16;10.80;84.00
23669;DHT22;12011;47.422;15.018;2022-09-17T09:29:02;10.90;80.50
23669;DHT22;12011;47.422;15.018;2022-09-17T09:31:59;10.90;85.90
23669;DHT22;12011;47.422;15.018;2022-09-17T09:34:35;10.90;83.70
23669;DHT22;12011;47.422;15.018;2022-09-17T09:37:15;10.90;81.60
23669;DHT22;12011;47.422;15.018;2022-09-17T09:39:50;11.00;76.90
23669;DHT22;12011;47.422;15.018;2022-09-17T09:42:29;11.00;81.50
23669;DHT22;12011;47.422;15.018;2022-09-17T09:45:05;11.10;77.70
23669;DHT22;12011;47.422;15.018;2022-09-17T09:47:52;11.10;76.40
23669;DHT22;12011;47.422;15.018;2022-09-17T09:50:40;11.10;75.10
23669;DHT22;12011;47.422;15.018;2022-09-17T09:53:23;11.10;78.30
23669;DHT22;12011;47.422;15.018;2022-09-17T09:56:09;11.20;76.50
23669;DHT22;12011;47.422;15.018;2022-09-17T09:58:53;11.30;83.20
23669;DHT22;12011;47.422;15.018;2022-09-17T10:01:26;11.30;75.90
23669;DHT22;12011;47.422;15.018;2022-09-17T10:03:57;11.20;71.00
23669;DHT22;12011;47.422;15.018;2022-09-17T10:06:30;11.10;75.90
23669;DHT22;12011;47.422;15.018;2022-09-17T10:09:10;11.10;70.40
23669;DHT22;12011;47.422;15.018;2022-09-17T10:11:41;11.10;70.40
23669;DHT22;12011;47.422;15.018;2022-09-17T10:14:22;11.10;68.50
23669;DHT22;12011;47.422;15.018;2022-09-17T10:20:13;11.20;70.70
23669;DHT22;12011;47.422;15.018;2022-09-17T10:22:45;11.20;69.50
23669;DHT22;12011;47.422;15.018;2022-09-17T10:25:28;11.00;67.50
23669;DHT22;12011;47.422;15.018;2022-09-17T10:28:02;10.90;69.80
23669;DHT22;12011;47.422;15.018;2022-09-17T10:30:35;11.00;72.60
23669;DHT22;12011;47.422;15.018;2022-09-17T10:33:18;11.00;68.30
23669;DHT22;12011;47.422;15.018;2022-09-17T10:35:59;11.00;70.50
23669;DHT22;12011;47.422;15.018;2022-09-17T10:38:34;11.10;73.50
23669;DHT22;12011;47.422;15.018;2022-09-17T10:41:12;11.20;76.20
23669;DHT22;12011;47.422;15.018;2022-09-17T10:43:44;11.30;69.00
23669;DHT22;12011;47.422;15.018;2022-09-17T10:46:20;11.40;67.10
23669;DHT22;12011;47.422;15.018;2022-09-17T10:49:09;11.50;67.10
23669;DHT22;12011;47.422;15.018;2022-09-17T10:51:39;11.70;66.10
23669;DHT22;12011;47.422;15.018;2022-09-17T10:57:52;11.90;63.80
23669;DHT22;12011;47.422;15.018;2022-09-17T11:00:42;12.10;67.40
23669;DHT22;12011;47.422;15.018;2022-09-17T11:03:51;12.10;62.40
23669;DHT22;12011;47.422;15.018;2022-09-17T11:10:05;12.60;64.60
23669;DHT22;12011;47.422;15.018;2022-09-17T11:12:56;12.70;60.00
23669;DHT22;12011;47.422;15.018;2022-09-17T11:15:48;12.90;59.40
23669;DHT22;12011;47.422;15.018;2022-09-17T11:18:37;12.90;64.50
23669;DHT22;12011;47.422;15.018;2022-09-17T11:21:32;12.90;61.10
23669;DHT22;12011;47.422;15.018;2022-09-17T11:24:29;12.90;60.70
23669;DHT22;12011;47.422;15.018;2022-09-17T11:27:29;12.70;59.90
23669;DHT22;12011;47.422;15.018;2022-09-17T11:30:15;12.50;61.20
23669;DHT22;12011;47.422;15.018;2022-09-17T11:33:04;12.50;61.60
23669;DHT22;12011;47.422;15.018;2022-09-17T11:36:02;12.40;57.40
23669;DHT22;12011;47.422;15.018;2022-09-17T11:38:39;12.50;62.60
23669;DHT22;12011;47.422;15.018;2022-09-17T11:41:15;12.70;59.50
23669;DHT22;12011;47.422;15.018;2022-09-17T11:43:52;12.80;59.60
23669;DHT22;12011;47.422;15.018;2022-09-17T11:46:33;12.80;55.00
23669;DHT22;12011;47.422;15.018;2022-09-17T11:49:13;13.00;57.80
23669;DHT22;12011;47.422;15.018;2022-09-17T11:51:57;13.70;61.40
23669;DHT22;12011;47.422;15.018;2022-09-17T11:54:34;12.80;60.50
23669;DHT22;12011;47.422;15.018;2022-09-17T11:57:12;12.50;60.40
23669;DHT22;12011;47.422;15.018;2022-09-17T11:59:50;12.70;60.40
23669;DHT22;12011;47.422;15.018;2022-09-17T12:02:38;13.00;58.00
23669;DHT22;12011;47.422;15.018;2022-09-17T12:05:19;13.30;60.00
23669;DHT22;12011;47.422;15.018;2022-09-17T12:08:02;13.30;57.00
23669;DHT22;12011;47.422;15.018;2022-09-17T12:10:40;13.10;61.10
23669;DHT22;12011;47.422;15.018;2022-09-17T12:13:22;13.00;60.60
23669;DHT22;12011;47.422;15.018;2022-09-17T12:16:07;12.90;59.90
23669;DHT22;12011;47.422;15.018;2022-09-17T12:18:49;12.80;59.00
23669;DHT22;12011;47.422;15.018;2022-09-17T12:21:28;12.70;57.70
23669;DHT22;12011;47.422;15.018;2022-09-17T12:24:09;12.60;57.60
23669;DHT22;12011;47.422;15.018;2022-09-17T12:27:08;12.70;56.20
23669;DHT22;12011;47.422;15.018;2022-09-17T12:30:04;12.60;56.20
23669;DHT22;12011;47.422;15.018;2022-09-17T12:33:02;12.50;58.50
23669;DHT22;12011;47.422;15.018;2022-09-17T12:35:58;12.30;57.40
23669;DHT22;12011;47.422;15.018;2022-09-17T12:39:08;12.40;56.10
23669;DHT22;12011;47.422;15.018;2022-09-17T12:42:00;12.50;58.90
23669;DHT22;12011;47.422;15.018;2022-09-17T12:44:53;12.50;58.50
23669;DHT22;12011;47.422;15.018;2022-09-17T12:47:58;12.30;59.60
23669;DHT22;12011;47.422;15.018;2022-09-17T12:50:49;12.20;60.40
23669;DHT22;12011;47.422;15.018;2022-09-17T12:53:29;12.20;61.70
23669;DHT22;12011;47.422;15.018;2022-09-17T12:56:18;12.20;58.40
23669;DHT22;12011;47.422;15.018;2022-09-17T12:59:04;12.20;61.60
23669;DHT22;12011;47.422;15.018;2022-09-17T13:01:43;12.20;59.10
23669;DHT22;12011;47.422;15.018;2022-09-17T13:04:45;12.10;62.20
23669;DHT22;12011;47.422;15.018;2022-09-17T13:07:52;12.00;60.00
23669;DHT22;12011;47.422;15.018;2022-09-17T13:10:40;12.00;61.50
23669;DHT22;12011;47.422;15.018;2022-09-17T13:13:35;11.80;63.00
23669;DHT22;12011;47.422;15.018;2022-09-17T13:16:15;12.00;61.70
23669;DHT22;12011;47.422;15.018;2022-09-17T13:18:55;12.00;64.60
23669;DHT22;12011;47.422;15.018;2022-09-17T13:21:36;12.00;63.70
23669;DHT22;12011;47.422;15.018;2022-09-17T13:24:15;11.90;60.90
23669;DHT22;12011;47.422;15.018;2022-09-17T13:26:45;12.00;66.00
23669;DHT22;12011;47.422;15.018;2022-09-17T13:32:49;12.00;63.60
23669;DHT22;12011;47.422;15.018;2022-09-17T13:35:48;11.90;61.20
23669;DHT22;12011;47.422;15.018;2022-09-17T13:38:19;11.90;61.20
23669;DHT22;12011;47.422;15.018;2022-09-17T13:40:51;11.70;63.00
23669;DHT22;12011;47.422;15.018;2022-09-17T13:43:23;11.60;62.10
23669;DHT22;12011;47.422;15.018;2022-09-17T13:46:13;11.50;66.40
23669;DHT22;12011;47.422;15.018;2022-09-17T13:48:48;11.50;66.40
23669;DHT22;12011;47.422;15.018;2022-09-17T13:51:41;11.50;69.00
23669;DHT22;12011;47.422;15.018;2022-09-17T13:54:21;11.60;68.80
23669;DHT22;12011;47.422;15.018;2022-09-17T13:57:11;11.60;69.10
23669;DHT22;12011;47.422;15.018;2022-09-17T13:59:54;11.70;72.30
23669;DHT22;12011;47.422;15.018;2022-09-17T14:02:33;11.80;67.80
23669;DHT22;12011;47.422;15.018;2022-09-17T14:05:28;11.80;71.60
23669;DHT22;12011;47.422;15.018;2022-09-17T14:08:27;11.80;67.20
23669;DHT22;12011;47.422;15.018;2022-09-17T14:11:01;11.80;63.30
23669;DHT22;12011;47.422;15.018;2022-09-17T14:13:52;11.80;64.70
23669;DHT22;12011;47.422;15.018;2022-09-17T14:16:44;11.80;68.10
23669;DHT22;12011;47.422;15.018;2022-09-17T14:19:30;11.80;67.40
23669;DHT22;12011;47.422;15.018;2022-09-17T14:22:13;11.90;66.10
23669;DHT22;12011;47.422;15.018;2022-09-17T14:24:50;11.70;63.90
23669;DHT22;12011;47.422;15.018;2022-09-17T14:27:45;11.70;64.00
23669;DHT22;12011;47.422;15.018;2022-09-17T14:30:22;11.70;70.20
23669;DHT22;12011;47.422;15.018;2022-09-17T14:33:01;11.60;67.30
23669;DHT22;12011;47.422;15.018;2022-09-17T14:35:40;11.60;66.40
23669;DHT22;12011;47.422;15.018;2022-09-17T14:38:15;11.60;67.80
23669;DHT22;12011;47.422;15.018;2022-09-17T14:40:57;11.50;66.40
23669;DHT22;12011;47.422;15.018;2022-09-17T14:43:39;11.40;70.50
23669;DHT22;12011;47.422;15.018;2022-09-17T14:46:20;11.40;69.80
23669;DHT22;12011;47.422;15.018;2022-09-17T14:48:51;11.10;73.90
23669;DHT22;12011;47.422;15.018;2022-09-17T14:51:27;10.90;76.40
23669;DHT22;12011;47.422;15.018;2022-09-17T14:54:13;10.90;72.50
23669;DHT22;12011;47.422;15.018;2022-09-17T14:56:49;10.30;76.40
23669;DHT22;12011;47.422;15.018;2022-09-17T14:59:46;10.70;73.70
23669;DHT22;12011;47.422;15.018;2022-09-17T15:02:30;10.70;76.70
23669;DHT22;12011;47.422;15.018;2022-09-17T15:05:17;10.80;81.50
23669;DHT22;12011;47.422;15.018;2022-09-17T15:08:04;10.70;73.40
23669;DHT22;12011;47.422;15.018;2022-09-17T15:10:36;10.70;72.40
23669;DHT22;12011;47.422;15.018;2022-09-17T15:13:16;10.60;72.80
23669;DHT22;12011;47.422;15.018;2022-09-17T15:15:57;10.60;71.40
23669;DHT22;12011;47.422;15.018;2022-09-17T15:18:41;10.50;72.30
23669;DHT22;12011;47.422;15.018;2022-09-17T15:21:25;10.30;68.90
23669;DHT22;12011;47.422;15.018;2022-09-17T15:24:12;10.30;75.20
23669;DHT22;12011;47.422;15.018;2022-09-17T15:26:51;10.40;69.90
23669;DHT22;12011;47.422;15.018;2022-09-17T15:29:26;10.40;76.50
23669;DHT22;12011;47.422;15.018;2022-09-17T15:31:57;10.20;73.50
23669;DHT22;12011;47.422;15.018;2022-09-17T15:34:27;10.10;73.30
23669;DHT22;12011;47.422;15.018;2022-09-17T15:37:03;10.00;73.80
23669;DHT22;12011;47.422;15.018;2022-09-17T15:39:42;10.00;72.70
23669;DHT22;12011;47.422;15.018;2022-09-17T15:42:25;10.00;75.00
23669;DHT22;12011;47.422;15.018;2022-09-17T15:45:07;9.90;72.60
23669;DHT22;12011;47.422;15.018;2022-09-17T15:47:50;10.00;81.30
23669;DHT22;12011;47.422;15.018;2022-09-17T15:50:24;9.90;76.00
23669;DHT22;12011;47.422;15.018;2022-09-17T15:53:11;9.90;74.20
23669;DHT22;12011;47.422;15.018;2022-09-17T15:55:57;9.90;74.90
23669;DHT22;12011;47.422;15.018;2022-09-17T15:58:33;9.70;74.10
23669;DHT22;12011;47.422;15.018;2022-09-17T16:04:29;9.70;81.00
23669;DHT22;12011;47.422;15.018;2022-09-17T16:07:26;9.40;80.10
23669;DHT22;12011;47.422;15.018;2022-09-17T16:09:56;9.40;74.80
23669;DHT22;12011;47.422;15.018;2022-09-17T16:12:29;9.40;75.50
23669;DHT22;12011;47.422;15.018;2022-09-17T16:14:59;9.30;79.10
23669;DHT22;12011;47.422;15.018;2022-09-17T16:17:33;9.20;79.90
23669;DHT22;12011;47.422;15.018;2022-09-17T16:20:16;9.30;73.80
23669;DHT22;12011;47.422;15.018;2022-09-17T16:22:49;9.40;71.60
23669;DHT22;12011;47.422;15.018;2022-09-17T16:25:23;9.40;72.50
23669;DHT22;12011;47.422;15.018;2022-09-17T16:28:01;9.30;80.00
23669;DHT22;12011;47.422;15.018;2022-09-17T16:30:32;9.40;71.80
23669;DHT22;12011;47.422;15.018;2022-09-17T16:33:02;9.30;76.70
23669;DHT22;12011;47.422;15.018;2022-09-17T16:35:32;9.30;72.30
23669;DHT22;12011;47.422;15.018;2022-09-17T16:38:03;9.20;75.30
23669;DHT22;12011;47.422;15.018;2022-09-17T16:40:33;9.20;73.50
23669;DHT22;12011;47.422;15.018;2022-09-17T16:43:05;9.20;72.40
23669;DHT22;12011;47.422;15.018;2022-09-17T16:45:35;9.20;73.50
23669;DHT22;12011;47.422;15.018;2022-09-17T16:48:05;9.20;70.70
23669;DHT22;12011;47.422;15.018;2022-09-17T16:50:37;9.20;73.40